ARG90T SABE-SAWC
Flight info
| Callsign | ARG90T |
|---|---|
| Flight time | 2h 59m |
| Altitude | 38000 |
| Route | GBE UT694 IREMO UP664 CRV UW48 BOKUK |
| Aircraft | B38M/M-SDE1FGHILORVWXY/HB1 |
Departure
| Time | 2026-04-25 19:38 |
|---|---|
| Airport | Aeroparque Jorge Newbery (SABE) |
Arrival
| Time | 2026-04-25 22:37 |
|---|---|
| Airport | El Calafate - Commander Armando Tola International Airport (SAWC) |
| Time | Latitude | Longitude | Altitude | Speed | Heading |
|---|---|---|---|---|---|
| 2026-04-25 18:55 | -34.55767 | -58.41323 | 29 ft | 0 kts | 33° |
| 2026-04-25 19:24 | -34.55774 | -58.41330 | 29 ft | 3 kts | 33° |
| 2026-04-25 19:25 | -34.55814 | -58.41319 | 29 ft | 3 kts | 303° |
| 2026-04-25 19:25 | -34.55819 | -58.41310 | 29 ft | 0 kts | 303° |
| 2026-04-25 19:29 | -34.55816 | -58.41316 | 29 ft | 2 kts | 303° |
| 2026-04-25 19:29 | -34.55803 | -58.41340 | 29 ft | 5 kts | 303° |
| 2026-04-25 19:30 | -34.55780 | -58.41383 | 29 ft | 7 kts | 303° |
| 2026-04-25 19:30 | -34.55749 | -58.41444 | 29 ft | 10 kts | 297° |
| 2026-04-25 19:30 | -34.55726 | -58.41528 | 29 ft | 11 kts | 264° |
| 2026-04-25 19:30 | -34.55784 | -58.41586 | 29 ft | 12 kts | 185° |
| 2026-04-25 19:31 | -34.55831 | -58.41519 | 29 ft | 12 kts | 117° |
| 2026-04-25 19:31 | -34.55873 | -58.41422 | 29 ft | 14 kts | 117° |
| 2026-04-25 19:31 | -34.55923 | -58.41304 | 29 ft | 17 kts | 120° |
| 2026-04-25 19:31 | -34.55999 | -58.41176 | 29 ft | 20 kts | 128° |
| 2026-04-25 19:32 | -34.56086 | -58.41033 | 30 ft | 22 kts | 126° |
| 2026-04-25 19:32 | -34.56161 | -58.40886 | 29 ft | 11 kts | 102° |
| 2026-04-25 19:32 | -34.56182 | -58.40796 | 29 ft | 11 kts | 126° |
| 2026-04-25 19:32 | -34.56213 | -58.40742 | 29 ft | 12 kts | 124° |
| 2026-04-25 19:33 | -34.56286 | -58.40615 | 29 ft | 15 kts | 124° |
| 2026-04-25 19:33 | -34.56355 | -58.40504 | 29 ft | 17 kts | 136° |
| 2026-04-25 19:33 | -34.56407 | -58.40451 | 29 ft | 0 kts | 140° |
| 2026-04-25 19:34 | -34.56407 | -58.40450 | 29 ft | 1 kts | 140° |
| 2026-04-25 19:34 | -34.56418 | -58.40440 | 29 ft | 3 kts | 140° |
| 2026-04-25 19:35 | -34.56442 | -58.40415 | 29 ft | 6 kts | 140° |
| 2026-04-25 19:35 | -34.56481 | -58.40375 | 29 ft | 9 kts | 141° |
| 2026-04-25 19:35 | -34.56541 | -58.40383 | 28 ft | 11 kts | 221° |
| 2026-04-25 19:35 | -34.56535 | -58.40472 | 27 ft | 12 kts | 296° |
| 2026-04-25 19:36 | -34.56515 | -58.40512 | 28 ft | 0 kts | 304° |
| 2026-04-25 19:37 | -34.56512 | -58.40516 | 28 ft | 3 kts | 304° |
| 2026-04-25 19:37 | -34.56446 | -58.40636 | 27 ft | 48 kts | 304° |
| 2026-04-25 19:38 | -34.56109 | -58.41244 | 29 ft | 125 kts | 304° |
| 2026-04-25 19:38 | -34.55511 | -58.42331 | 177 ft | 172 kts | 302° |
| 2026-04-25 19:38 | -34.54830 | -58.43567 | 972 ft | 181 kts | 302° |
| 2026-04-25 19:38 | -34.54073 | -58.44820 | 1824 ft | 193 kts | 313° |
| 2026-04-25 19:39 | -34.52795 | -58.45663 | 2275 ft | 226 kts | 351° |
| 2026-04-25 19:39 | -34.51188 | -58.45356 | 3036 ft | 252 kts | 26° |
| 2026-04-25 19:39 | -34.49945 | -58.43846 | 4000 ft | 257 kts | 64° |
| 2026-04-25 19:39 | -34.49568 | -58.41734 | 4637 ft | 259 kts | 96° |
| 2026-04-25 19:40 | -34.49997 | -58.39637 | 4832 ft | 257 kts | 110° |
| 2026-04-25 19:40 | -34.50522 | -58.37554 | 5053 ft | 260 kts | 109° |
| 2026-04-25 19:40 | -34.51029 | -58.35469 | 6094 ft | 258 kts | 109° |
| 2026-04-25 19:40 | -34.51536 | -58.33357 | 7075 ft | 264 kts | 109° |
| 2026-04-25 19:41 | -34.52049 | -58.31193 | 8018 ft | 270 kts | 108° |
| 2026-04-25 19:41 | -34.52571 | -58.28973 | 8974 ft | 276 kts | 108° |
| 2026-04-25 19:41 | -34.53106 | -58.26705 | 9903 ft | 282 kts | 109° |
| 2026-04-25 19:41 | -34.53326 | -58.25945 | 10173 ft | 284 kts | 116° |
| 2026-04-25 19:42 | -34.55517 | -58.23062 | 11503 ft | 288 kts | 149° |
| 2026-04-25 19:42 | -34.57224 | -58.21646 | 12026 ft | 307 kts | 150° |
| 2026-04-25 19:42 | -34.59061 | -58.20160 | 12489 ft | 328 kts | 150° |
| 2026-04-25 19:42 | -34.61028 | -58.18591 | 12948 ft | 347 kts | 150° |
| 2026-04-25 19:43 | -34.63089 | -58.16961 | 13532 ft | 361 kts | 150° |
| 2026-04-25 19:43 | -34.65218 | -58.15287 | 14253 ft | 367 kts | 151° |
| 2026-04-25 19:43 | -34.67390 | -58.13584 | 14919 ft | 375 kts | 151° |
| 2026-04-25 19:43 | -34.69590 | -58.11860 | 15684 ft | 378 kts | 151° |
| 2026-04-25 19:44 | -34.71815 | -58.10115 | 16412 ft | 383 kts | 151° |
| 2026-04-25 19:44 | -34.74067 | -58.08349 | 17127 ft | 387 kts | 152° |
| 2026-04-25 19:44 | -34.76344 | -58.06562 | 17835 ft | 392 kts | 152° |
| 2026-04-25 19:44 | -34.78649 | -58.04752 | 18494 ft | 396 kts | 152° |
| 2026-04-25 19:45 | -34.80978 | -58.02922 | 19081 ft | 400 kts | 152° |
| 2026-04-25 19:45 | -34.83330 | -58.01072 | 19672 ft | 405 kts | 153° |
| 2026-04-25 19:45 | -34.85683 | -57.99220 | 20160 ft | 412 kts | 153° |
| 2026-04-25 19:45 | -34.88099 | -57.97317 | 20777 ft | 415 kts | 153° |
| 2026-04-25 19:46 | -34.90534 | -57.95399 | 21360 ft | 419 kts | 153° |
| 2026-04-25 19:46 | -34.93019 | -57.93529 | 21900 ft | 418 kts | 161° |
| 2026-04-25 19:46 | -34.95722 | -57.92426 | 22412 ft | 405 kts | 179° |
| 2026-04-25 19:46 | -34.98494 | -57.92349 | 22882 ft | 394 kts | 196° |
| 2026-04-25 19:47 | -35.01091 | -57.93193 | 23416 ft | 382 kts | 211° |
| 2026-04-25 19:47 | -35.03495 | -57.94551 | 23859 ft | 382 kts | 216° |
| 2026-04-25 19:47 | -35.05862 | -57.96050 | 24317 ft | 383 kts | 218° |
| 2026-04-25 19:47 | -35.08194 | -57.97627 | 24792 ft | 384 kts | 219° |
| 2026-04-25 19:48 | -35.10514 | -57.99251 | 25246 ft | 386 kts | 220° |
| 2026-04-25 19:48 | -35.12840 | -58.00906 | 25713 ft | 388 kts | 220° |
| 2026-04-25 19:48 | -35.15170 | -58.02583 | 26167 ft | 390 kts | 220° |
| 2026-04-25 19:48 | -35.17509 | -58.04278 | 26612 ft | 392 kts | 221° |
| 2026-04-25 19:49 | -35.19859 | -58.05985 | 27051 ft | 394 kts | 221° |
| 2026-04-25 19:49 | -35.20656 | -58.06564 | 27199 ft | 395 kts | 221° |
| 2026-04-25 19:49 | -35.24599 | -58.09434 | 27918 ft | 398 kts | 221° |
| 2026-04-25 19:49 | -35.26988 | -58.11174 | 28341 ft | 401 kts | 222° |
| 2026-04-25 19:50 | -35.31817 | -58.14695 | 29099 ft | 408 kts | 222° |
| 2026-04-25 19:50 | -35.34222 | -58.16451 | 29496 ft | 409 kts | 222° |
| 2026-04-25 19:50 | -35.36674 | -58.18243 | 29882 ft | 412 kts | 222° |
| 2026-04-25 19:51 | -35.39144 | -58.20048 | 30212 ft | 414 kts | 222° |
| 2026-04-25 19:51 | -35.41629 | -58.21867 | 30526 ft | 417 kts | 222° |
| 2026-04-25 19:51 | -35.44124 | -58.23693 | 30859 ft | 418 kts | 222° |
| 2026-04-25 19:51 | -35.46628 | -58.25528 | 31197 ft | 420 kts | 222° |
| 2026-04-25 19:52 | -35.49139 | -58.27369 | 31512 ft | 422 kts | 222° |
| 2026-04-25 19:52 | -35.51663 | -58.29222 | 31830 ft | 423 kts | 222° |
| 2026-04-25 19:52 | -35.54191 | -58.31077 | 32200 ft | 423 kts | 223° |
| 2026-04-25 19:52 | -35.56715 | -58.32932 | 32714 ft | 421 kts | 222° |
| 2026-04-25 19:53 | -35.59228 | -58.34780 | 33098 ft | 421 kts | 223° |
| 2026-04-25 19:53 | -35.61743 | -58.36631 | 33486 ft | 421 kts | 223° |
| 2026-04-25 19:53 | -35.64249 | -58.38477 | 33927 ft | 419 kts | 223° |
| 2026-04-25 19:53 | -35.66746 | -58.40316 | 34296 ft | 418 kts | 223° |
| 2026-04-25 19:54 | -35.69238 | -58.42154 | 34634 ft | 417 kts | 223° |
| 2026-04-25 19:54 | -35.71725 | -58.43989 | 34958 ft | 416 kts | 223° |
| 2026-04-25 19:54 | -35.74208 | -58.45825 | 35283 ft | 415 kts | 223° |
| 2026-04-25 19:54 | -35.75006 | -58.46431 | 35385 ft | 414 kts | 223° |
| 2026-04-25 19:55 | -35.79094 | -58.49580 | 35903 ft | 414 kts | 223° |
| 2026-04-25 19:55 | -35.81533 | -58.51454 | 36183 ft | 414 kts | 223° |
| 2026-04-25 19:55 | -35.83942 | -58.53305 | 36522 ft | 413 kts | 222° |
| 2026-04-25 19:55 | -35.86380 | -58.55179 | 36785 ft | 413 kts | 222° |
| 2026-04-25 19:56 | -35.88815 | -58.57052 | 37054 ft | 412 kts | 222° |
| 2026-04-25 19:56 | -35.91248 | -58.58926 | 37335 ft | 412 kts | 222° |
| 2026-04-25 19:56 | -35.93677 | -58.60797 | 37610 ft | 411 kts | 222° |
| 2026-04-25 19:56 | -35.96102 | -58.62666 | 37874 ft | 411 kts | 222° |
| 2026-04-25 19:57 | -35.98528 | -58.64538 | 38000 ft | 411 kts | 222° |
| 2026-04-25 19:57 | -36.02581 | -58.67668 | 37975 ft | 408 kts | 222° |
| 2026-04-25 19:58 | -36.07395 | -58.71391 | 37979 ft | 409 kts | 222° |
| 2026-04-25 19:58 | -36.12215 | -58.75124 | 38011 ft | 409 kts | 222° |
| 2026-04-25 19:59 | -36.17006 | -58.78840 | 37980 ft | 409 kts | 222° |
| 2026-04-25 19:59 | -36.21829 | -58.82586 | 37979 ft | 409 kts | 222° |
| 2026-04-25 20:00 | -36.26653 | -58.86339 | 38002 ft | 409 kts | 221° |
| 2026-04-25 20:00 | -36.31479 | -58.90098 | 37988 ft | 409 kts | 222° |
| 2026-04-25 20:01 | -36.38712 | -58.95744 | 38040 ft | 409 kts | 221° |
| 2026-04-25 20:01 | -36.43539 | -58.99517 | 37981 ft | 410 kts | 221° |
| 2026-04-25 20:02 | -36.48373 | -59.03303 | 38000 ft | 411 kts | 221° |
| 2026-04-25 20:02 | -36.53206 | -59.07094 | 37982 ft | 410 kts | 221° |
| 2026-04-25 20:03 | -36.58034 | -59.10886 | 37982 ft | 410 kts | 221° |
| 2026-04-25 20:03 | -36.62860 | -59.14682 | 37982 ft | 410 kts | 221° |
| 2026-04-25 20:04 | -36.67687 | -59.18484 | 37997 ft | 411 kts | 221° |
| 2026-04-25 20:04 | -36.72485 | -59.22270 | 37979 ft | 411 kts | 221° |
| 2026-04-25 20:05 | -36.77317 | -59.26088 | 37981 ft | 411 kts | 221° |
| 2026-04-25 20:05 | -36.82146 | -59.29910 | 37980 ft | 411 kts | 221° |
| 2026-04-25 20:06 | -36.86982 | -59.33743 | 37990 ft | 411 kts | 221° |
| 2026-04-25 20:06 | -36.91811 | -59.37576 | 37977 ft | 411 kts | 221° |
| 2026-04-25 20:07 | -36.96649 | -59.41422 | 37979 ft | 411 kts | 221° |
| 2026-04-25 20:07 | -37.01452 | -59.45246 | 37979 ft | 411 kts | 221° |
| 2026-04-25 20:08 | -37.06286 | -59.49100 | 37980 ft | 411 kts | 221° |
| 2026-04-25 20:08 | -37.11126 | -59.52964 | 37978 ft | 411 kts | 221° |
| 2026-04-25 20:09 | -37.15920 | -59.56798 | 37979 ft | 411 kts | 221° |
| 2026-04-25 20:09 | -37.20663 | -59.60768 | 38023 ft | 410 kts | 222° |
| 2026-04-25 20:10 | -37.25392 | -59.64768 | 37967 ft | 410 kts | 222° |
| 2026-04-25 20:10 | -37.30126 | -59.68773 | 37969 ft | 410 kts | 222° |
| 2026-04-25 20:11 | -37.34856 | -59.72779 | 37966 ft | 410 kts | 222° |
| 2026-04-25 20:11 | -37.39593 | -59.76797 | 37966 ft | 410 kts | 222° |
| 2026-04-25 20:12 | -37.44323 | -59.80817 | 37961 ft | 410 kts | 222° |
| 2026-04-25 20:12 | -37.48256 | -59.84162 | 37993 ft | 410 kts | 222° |
| 2026-04-25 20:13 | -37.53768 | -59.88860 | 37970 ft | 411 kts | 222° |
| 2026-04-25 20:13 | -37.58510 | -59.92907 | 37956 ft | 411 kts | 222° |
| 2026-04-25 20:14 | -37.63212 | -59.96928 | 37951 ft | 411 kts | 222° |
| 2026-04-25 20:14 | -37.67946 | -60.00981 | 37953 ft | 411 kts | 222° |
| 2026-04-25 20:15 | -37.72687 | -60.05047 | 37952 ft | 411 kts | 222° |
| 2026-04-25 20:15 | -37.77421 | -60.09114 | 37958 ft | 411 kts | 222° |
| 2026-04-25 20:16 | -37.82127 | -60.13163 | 37947 ft | 412 kts | 222° |
| 2026-04-25 20:16 | -37.86862 | -60.17243 | 37944 ft | 411 kts | 222° |
| 2026-04-25 20:17 | -37.91601 | -60.21333 | 37947 ft | 412 kts | 222° |
| 2026-04-25 20:17 | -37.96343 | -60.25431 | 37939 ft | 412 kts | 222° |
| 2026-04-25 20:18 | -38.01086 | -60.29538 | 37930 ft | 412 kts | 222° |
| 2026-04-25 20:18 | -38.05802 | -60.33628 | 37938 ft | 413 kts | 222° |
| 2026-04-25 20:19 | -38.10559 | -60.37758 | 37933 ft | 413 kts | 222° |
| 2026-04-25 20:19 | -38.15313 | -60.41879 | 37928 ft | 414 kts | 221° |
| 2026-04-25 20:20 | -38.20117 | -60.45938 | 37927 ft | 414 kts | 221° |
| 2026-04-25 20:20 | -38.24895 | -60.49988 | 37935 ft | 415 kts | 221° |
| 2026-04-25 20:21 | -38.29712 | -60.54079 | 37935 ft | 416 kts | 221° |
| 2026-04-25 20:21 | -38.34528 | -60.58178 | 37924 ft | 416 kts | 221° |
| 2026-04-25 20:22 | -38.37718 | -60.60896 | 37918 ft | 416 kts | 221° |
| 2026-04-25 20:22 | -38.44165 | -60.66398 | 37916 ft | 416 kts | 221° |
| 2026-04-25 20:23 | -38.48946 | -60.70486 | 37916 ft | 416 kts | 221° |
| 2026-04-25 20:23 | -38.53764 | -60.74612 | 37913 ft | 416 kts | 221° |
| 2026-04-25 20:24 | -38.58582 | -60.78746 | 37918 ft | 418 kts | 220° |
| 2026-04-25 20:24 | -38.63386 | -60.82874 | 37912 ft | 418 kts | 220° |
| 2026-04-25 20:25 | -38.68215 | -60.87030 | 37908 ft | 418 kts | 221° |
| 2026-04-25 20:25 | -38.73045 | -60.91194 | 37909 ft | 418 kts | 220° |
| 2026-04-25 20:26 | -38.77871 | -60.95361 | 37906 ft | 418 kts | 221° |
| 2026-04-25 20:26 | -38.82671 | -60.99513 | 37939 ft | 418 kts | 220° |
| 2026-04-25 20:27 | -38.87509 | -61.03704 | 37903 ft | 419 kts | 220° |
| 2026-04-25 20:27 | -38.92341 | -61.07898 | 37903 ft | 419 kts | 220° |
| 2026-04-25 20:28 | -38.97174 | -61.12099 | 37900 ft | 419 kts | 220° |
| 2026-04-25 20:28 | -39.01974 | -61.16278 | 37900 ft | 419 kts | 220° |
| 2026-04-25 20:29 | -39.06799 | -61.20487 | 37898 ft | 419 kts | 220° |
| 2026-04-25 20:29 | -39.11635 | -61.24712 | 37905 ft | 419 kts | 220° |
| 2026-04-25 20:30 | -39.16466 | -61.28940 | 37902 ft | 420 kts | 220° |
| 2026-04-25 20:30 | -39.21294 | -61.33173 | 37899 ft | 419 kts | 220° |
| 2026-04-25 20:31 | -39.26117 | -61.37408 | 37887 ft | 419 kts | 220° |
| 2026-04-25 20:31 | -39.30905 | -61.41619 | 37903 ft | 419 kts | 220° |
| 2026-04-25 20:32 | -39.35719 | -61.45860 | 37928 ft | 419 kts | 220° |
| 2026-04-25 20:32 | -39.40532 | -61.50109 | 37898 ft | 418 kts | 220° |
| 2026-04-25 20:33 | -39.45348 | -61.54367 | 37899 ft | 418 kts | 220° |
| 2026-04-25 20:33 | -39.48536 | -61.57189 | 37902 ft | 418 kts | 220° |
| 2026-04-25 20:34 | -39.54934 | -61.62863 | 37893 ft | 418 kts | 220° |
| 2026-04-25 20:34 | -39.59737 | -61.67131 | 37897 ft | 418 kts | 220° |
| 2026-04-25 20:35 | -39.64540 | -61.71407 | 37896 ft | 418 kts | 220° |
| 2026-04-25 20:35 | -39.69342 | -61.75688 | 37904 ft | 418 kts | 220° |
| 2026-04-25 20:36 | -39.74139 | -61.79971 | 37907 ft | 418 kts | 220° |
| 2026-04-25 20:36 | -39.78933 | -61.84259 | 37904 ft | 418 kts | 220° |
| 2026-04-25 20:37 | -39.83700 | -61.88530 | 37908 ft | 418 kts | 220° |
| 2026-04-25 20:37 | -39.88330 | -61.93048 | 37930 ft | 414 kts | 225° |
| 2026-04-25 20:38 | -39.92752 | -61.97846 | 37907 ft | 413 kts | 225° |
| 2026-04-25 20:38 | -39.97196 | -62.02607 | 37908 ft | 414 kts | 225° |
| 2026-04-25 20:39 | -40.01651 | -62.07378 | 37909 ft | 414 kts | 225° |
| 2026-04-25 20:39 | -40.04603 | -62.10542 | 37909 ft | 414 kts | 225° |
| 2026-04-25 20:40 | -40.10532 | -62.16909 | 37905 ft | 413 kts | 225° |
| 2026-04-25 20:40 | -40.14946 | -62.21659 | 37937 ft | 414 kts | 225° |
| 2026-04-25 20:41 | -40.19398 | -62.26458 | 37901 ft | 413 kts | 224° |
| 2026-04-25 20:41 | -40.23837 | -62.31252 | 37905 ft | 413 kts | 224° |
| 2026-04-25 20:42 | -40.28239 | -62.36014 | 37909 ft | 413 kts | 224° |
| 2026-04-25 20:42 | -40.32668 | -62.40813 | 37909 ft | 413 kts | 224° |
| 2026-04-25 20:43 | -40.37107 | -62.45633 | 37906 ft | 413 kts | 225° |
| 2026-04-25 20:43 | -40.41529 | -62.50441 | 37905 ft | 413 kts | 225° |
| 2026-04-25 20:44 | -40.45959 | -62.55267 | 37915 ft | 413 kts | 224° |
| 2026-04-25 20:44 | -40.50355 | -62.60065 | 37906 ft | 413 kts | 224° |
| 2026-04-25 20:45 | -40.54771 | -62.64894 | 37896 ft | 413 kts | 224° |
| 2026-04-25 20:45 | -40.59192 | -62.69736 | 37895 ft | 413 kts | 225° |
| 2026-04-25 20:46 | -40.63605 | -62.74578 | 37895 ft | 413 kts | 225° |
| 2026-04-25 20:46 | -40.67276 | -62.78611 | 37899 ft | 413 kts | 225° |
| 2026-04-25 20:47 | -40.71697 | -62.83478 | 37900 ft | 414 kts | 224° |
| 2026-04-25 20:47 | -40.76132 | -62.88368 | 37892 ft | 416 kts | 224° |
| 2026-04-25 20:48 | -40.80571 | -62.93270 | 37912 ft | 416 kts | 224° |
| 2026-04-25 20:48 | -40.84976 | -62.98144 | 37909 ft | 416 kts | 224° |
| 2026-04-25 20:49 | -40.89685 | -63.02639 | 37919 ft | 419 kts | 219° |
| 2026-04-25 20:49 | -40.94492 | -63.07016 | 37912 ft | 419 kts | 220° |
| 2026-04-25 20:50 | -40.99282 | -63.11434 | 37907 ft | 421 kts | 220° |
| 2026-04-25 20:50 | -41.04092 | -63.15883 | 37897 ft | 421 kts | 220° |
| 2026-04-25 20:51 | -41.08894 | -63.20333 | 37889 ft | 421 kts | 220° |
| 2026-04-25 20:51 | -41.13674 | -63.24771 | 37876 ft | 421 kts | 220° |
| 2026-04-25 20:52 | -41.17691 | -63.28508 | 37874 ft | 421 kts | 220° |
| 2026-04-25 20:52 | -41.23270 | -63.33705 | 37880 ft | 422 kts | 220° |
| 2026-04-25 20:53 | -41.28087 | -63.38203 | 37870 ft | 422 kts | 220° |
| 2026-04-25 20:53 | -41.32894 | -63.42699 | 37864 ft | 422 kts | 220° |
| 2026-04-25 20:54 | -41.37680 | -63.47183 | 37862 ft | 421 kts | 220° |
| 2026-04-25 20:54 | -41.42474 | -63.51684 | 37863 ft | 421 kts | 220° |
| 2026-04-25 20:55 | -41.47265 | -63.56190 | 37876 ft | 421 kts | 220° |
| 2026-04-25 20:55 | -41.52030 | -63.60679 | 37861 ft | 422 kts | 220° |
| 2026-04-25 20:56 | -41.56823 | -63.65203 | 37861 ft | 422 kts | 220° |
| 2026-04-25 20:56 | -41.61616 | -63.69736 | 37858 ft | 422 kts | 220° |
| 2026-04-25 20:57 | -41.66403 | -63.74271 | 37862 ft | 422 kts | 220° |
| 2026-04-25 20:57 | -41.71188 | -63.78814 | 37860 ft | 421 kts | 219° |
| 2026-04-25 20:58 | -41.75972 | -63.83363 | 37846 ft | 422 kts | 219° |
| 2026-04-25 20:58 | -41.80724 | -63.87891 | 37843 ft | 422 kts | 219° |
| 2026-04-25 20:59 | -41.85507 | -63.92456 | 37839 ft | 422 kts | 219° |
| 2026-04-25 20:59 | -41.90287 | -63.97028 | 37840 ft | 422 kts | 219° |
| 2026-04-25 21:00 | -41.94256 | -64.00830 | 37834 ft | 421 kts | 219° |
| 2026-04-25 21:01 | -42.02216 | -64.08473 | 37828 ft | 420 kts | 219° |
| 2026-04-25 21:01 | -42.06943 | -64.13023 | 37827 ft | 420 kts | 219° |
| 2026-04-25 21:02 | -42.11697 | -64.17608 | 37824 ft | 420 kts | 219° |
| 2026-04-25 21:02 | -42.16452 | -64.22203 | 37820 ft | 420 kts | 219° |
| 2026-04-25 21:03 | -42.21197 | -64.26796 | 37825 ft | 418 kts | 219° |
| 2026-04-25 21:03 | -42.25917 | -64.31374 | 37805 ft | 417 kts | 219° |
| 2026-04-25 21:04 | -42.30610 | -64.35935 | 37808 ft | 417 kts | 219° |
| 2026-04-25 21:04 | -42.35323 | -64.40523 | 37800 ft | 417 kts | 219° |
| 2026-04-25 21:05 | -42.40047 | -64.45131 | 37794 ft | 419 kts | 219° |
| 2026-04-25 21:05 | -42.44778 | -64.49754 | 37789 ft | 419 kts | 219° |
| 2026-04-25 21:06 | -42.49504 | -64.54382 | 37782 ft | 418 kts | 219° |
| 2026-04-25 21:06 | -42.54214 | -64.59002 | 37781 ft | 418 kts | 219° |
| 2026-04-25 21:07 | -42.58895 | -64.63603 | 37766 ft | 418 kts | 219° |
| 2026-04-25 21:07 | -42.63611 | -64.68247 | 37774 ft | 419 kts | 219° |
| 2026-04-25 21:08 | -42.68327 | -64.72899 | 37771 ft | 418 kts | 219° |
| 2026-04-25 21:08 | -42.73042 | -64.77561 | 37778 ft | 418 kts | 219° |
| 2026-04-25 21:09 | -42.80071 | -64.84526 | 37769 ft | 418 kts | 219° |
| 2026-04-25 21:09 | -42.84771 | -64.89194 | 37763 ft | 418 kts | 219° |
| 2026-04-25 21:10 | -42.89472 | -64.93873 | 37757 ft | 418 kts | 219° |
| 2026-04-25 21:10 | -42.94172 | -64.98559 | 37761 ft | 418 kts | 219° |
| 2026-04-25 21:11 | -42.98876 | -65.03257 | 37776 ft | 418 kts | 219° |
| 2026-04-25 21:11 | -43.03547 | -65.07931 | 37781 ft | 419 kts | 219° |
| 2026-04-25 21:12 | -43.08259 | -65.12654 | 37787 ft | 419 kts | 219° |
| 2026-04-25 21:12 | -43.12177 | -65.16588 | 37797 ft | 419 kts | 219° |
| 2026-04-25 21:13 | -43.17673 | -65.22118 | 37800 ft | 419 kts | 219° |
| 2026-04-25 21:13 | -43.22563 | -65.26506 | 37837 ft | 421 kts | 213° |
| 2026-04-25 21:14 | -43.27644 | -65.30534 | 37800 ft | 425 kts | 213° |
| 2026-04-25 21:14 | -43.32782 | -65.34585 | 37792 ft | 425 kts | 213° |
| 2026-04-25 21:15 | -43.37911 | -65.38634 | 37777 ft | 425 kts | 213° |
| 2026-04-25 21:15 | -43.43040 | -65.42691 | 37767 ft | 424 kts | 213° |
| 2026-04-25 21:16 | -43.48117 | -65.46715 | 37745 ft | 424 kts | 213° |
| 2026-04-25 21:16 | -43.53259 | -65.50798 | 37728 ft | 427 kts | 213° |
| 2026-04-25 21:17 | -43.58401 | -65.54890 | 37716 ft | 426 kts | 213° |
| 2026-04-25 21:17 | -43.63548 | -65.58993 | 37714 ft | 427 kts | 213° |
| 2026-04-25 21:18 | -43.68669 | -65.63084 | 37701 ft | 424 kts | 213° |
| 2026-04-25 21:18 | -43.73781 | -65.67176 | 37705 ft | 426 kts | 213° |
| 2026-04-25 21:19 | -43.78890 | -65.71273 | 37697 ft | 426 kts | 213° |
| 2026-04-25 21:19 | -43.84032 | -65.75406 | 37698 ft | 426 kts | 213° |
| 2026-04-25 21:20 | -43.87458 | -65.78164 | 37715 ft | 426 kts | 213° |
| 2026-04-25 21:20 | -43.94224 | -65.83621 | 37690 ft | 420 kts | 213° |
| 2026-04-25 21:21 | -43.99255 | -65.87688 | 37685 ft | 421 kts | 213° |
| 2026-04-25 21:21 | -44.04330 | -65.91802 | 37678 ft | 422 kts | 213° |
| 2026-04-25 21:22 | -44.09401 | -65.95921 | 37673 ft | 422 kts | 213° |
| 2026-04-25 21:22 | -44.14461 | -66.00038 | 37675 ft | 419 kts | 214° |
| 2026-04-25 21:23 | -44.19463 | -66.04116 | 37671 ft | 418 kts | 214° |
| 2026-04-25 21:23 | -44.24495 | -66.08226 | 37666 ft | 418 kts | 214° |
| 2026-04-25 21:24 | -44.29528 | -66.12347 | 37666 ft | 418 kts | 214° |
| 2026-04-25 21:24 | -44.34520 | -66.16441 | 37666 ft | 418 kts | 214° |
| 2026-04-25 21:25 | -44.39535 | -66.20563 | 37668 ft | 417 kts | 214° |
| 2026-04-25 21:25 | -44.44536 | -66.24681 | 37688 ft | 417 kts | 214° |
| 2026-04-25 21:26 | -44.49547 | -66.28816 | 37674 ft | 417 kts | 214° |
| 2026-04-25 21:26 | -44.54527 | -66.32934 | 37671 ft | 417 kts | 214° |
| 2026-04-25 21:27 | -44.59532 | -66.37080 | 37668 ft | 417 kts | 214° |
| 2026-04-25 21:27 | -44.64537 | -66.41235 | 37673 ft | 418 kts | 214° |
| 2026-04-25 21:28 | -44.69508 | -66.45370 | 37699 ft | 417 kts | 214° |
| 2026-04-25 21:28 | -44.74510 | -66.49539 | 37680 ft | 418 kts | 214° |
| 2026-04-25 21:29 | -44.79515 | -66.53720 | 37683 ft | 418 kts | 214° |
| 2026-04-25 21:29 | -44.84525 | -66.57912 | 37667 ft | 419 kts | 214° |
| 2026-04-25 21:30 | -44.89525 | -66.62106 | 37693 ft | 421 kts | 214° |
| 2026-04-25 21:30 | -44.93719 | -66.65629 | 37694 ft | 421 kts | 214° |
| 2026-04-25 21:31 | -44.99610 | -66.70588 | 37702 ft | 422 kts | 214° |
| 2026-04-25 21:31 | -45.04658 | -66.74848 | 37698 ft | 422 kts | 214° |
| 2026-04-25 21:32 | -45.09673 | -66.79087 | 37696 ft | 422 kts | 214° |
| 2026-04-25 21:32 | -45.14718 | -66.83361 | 37696 ft | 422 kts | 214° |
| 2026-04-25 21:33 | -45.19773 | -66.87652 | 37714 ft | 422 kts | 214° |
| 2026-04-25 21:33 | -45.24793 | -66.91922 | 37710 ft | 423 kts | 214° |
| 2026-04-25 21:34 | -45.29839 | -66.96224 | 37708 ft | 423 kts | 214° |
| 2026-04-25 21:34 | -45.34070 | -66.99838 | 37719 ft | 423 kts | 214° |
| 2026-04-25 21:35 | -45.39111 | -67.04151 | 37718 ft | 423 kts | 214° |
| 2026-04-25 21:35 | -45.44115 | -67.08442 | 37724 ft | 423 kts | 214° |
| 2026-04-25 21:36 | -45.49161 | -67.12778 | 37728 ft | 423 kts | 214° |
| 2026-04-25 21:36 | -45.54210 | -67.17126 | 37736 ft | 424 kts | 214° |
| 2026-04-25 21:37 | -45.58407 | -67.20746 | 37737 ft | 423 kts | 214° |
| 2026-04-25 21:37 | -45.64259 | -67.25808 | 37743 ft | 422 kts | 214° |
| 2026-04-25 21:38 | -45.69286 | -67.30164 | 37747 ft | 422 kts | 214° |
| 2026-04-25 21:38 | -45.74318 | -67.34533 | 37753 ft | 423 kts | 214° |
| 2026-04-25 21:39 | -45.79282 | -67.39056 | 37753 ft | 422 kts | 216° |
| 2026-04-25 21:39 | -45.84199 | -67.43693 | 37747 ft | 421 kts | 215° |
| 2026-04-25 21:40 | -45.89077 | -67.48285 | 37748 ft | 421 kts | 215° |
| 2026-04-25 21:40 | -45.93980 | -67.52910 | 37782 ft | 421 kts | 215° |
| 2026-04-25 21:41 | -45.98887 | -67.57547 | 37807 ft | 421 kts | 215° |
| 2026-04-25 21:41 | -46.03757 | -67.62160 | 37799 ft | 422 kts | 215° |
| 2026-04-25 21:42 | -46.08665 | -67.66819 | 37791 ft | 421 kts | 215° |
| 2026-04-25 21:42 | -46.13550 | -67.71467 | 37804 ft | 420 kts | 215° |
| 2026-04-25 21:43 | -46.18429 | -67.76117 | 37809 ft | 421 kts | 215° |
| 2026-04-25 21:43 | -46.23313 | -67.80784 | 37824 ft | 421 kts | 215° |
| 2026-04-25 21:44 | -46.28197 | -67.85461 | 37829 ft | 422 kts | 215° |
| 2026-04-25 21:45 | -46.35516 | -67.92487 | 37826 ft | 420 kts | 215° |
| 2026-04-25 21:45 | -46.40360 | -67.97150 | 37839 ft | 420 kts | 215° |
| 2026-04-25 21:46 | -46.45228 | -68.01848 | 37843 ft | 420 kts | 215° |
| 2026-04-25 21:46 | -46.50088 | -68.06547 | 37857 ft | 420 kts | 215° |
| 2026-04-25 21:47 | -46.54954 | -68.11262 | 37849 ft | 420 kts | 214° |
| 2026-04-25 21:47 | -46.59772 | -68.15940 | 37864 ft | 417 kts | 214° |
| 2026-04-25 21:48 | -46.64605 | -68.20644 | 37865 ft | 417 kts | 214° |
| 2026-04-25 21:48 | -46.69404 | -68.25325 | 37870 ft | 417 kts | 214° |
| 2026-04-25 21:49 | -46.74235 | -68.30048 | 37870 ft | 417 kts | 214° |
| 2026-04-25 21:49 | -46.79059 | -68.34774 | 37861 ft | 417 kts | 214° |
| 2026-04-25 21:50 | -46.83869 | -68.39497 | 37878 ft | 416 kts | 214° |
| 2026-04-25 21:50 | -46.88635 | -68.44186 | 37882 ft | 416 kts | 214° |
| 2026-04-25 21:51 | -46.93439 | -68.48924 | 37889 ft | 416 kts | 214° |
| 2026-04-25 21:51 | -46.98234 | -68.53662 | 37893 ft | 416 kts | 214° |
| 2026-04-25 21:52 | -47.03027 | -68.58409 | 37897 ft | 415 kts | 214° |
| 2026-04-25 21:52 | -47.07787 | -68.63135 | 37897 ft | 415 kts | 214° |
| 2026-04-25 21:53 | -47.12575 | -68.67898 | 37907 ft | 415 kts | 214° |
| 2026-04-25 21:53 | -47.17355 | -68.72664 | 37904 ft | 415 kts | 214° |
| 2026-04-25 21:54 | -47.22147 | -68.77452 | 37913 ft | 415 kts | 214° |
| 2026-04-25 21:54 | -47.26930 | -68.82243 | 37910 ft | 415 kts | 214° |
| 2026-04-25 21:55 | -47.31696 | -68.87025 | 37928 ft | 411 kts | 214° |
| 2026-04-25 21:55 | -47.36368 | -68.91725 | 37926 ft | 409 kts | 214° |
| 2026-04-25 21:56 | -47.41083 | -68.96478 | 37917 ft | 409 kts | 214° |
| 2026-04-25 21:56 | -47.45792 | -69.01237 | 37928 ft | 410 kts | 214° |
| 2026-04-25 21:57 | -47.50475 | -69.05979 | 37942 ft | 409 kts | 214° |
| 2026-04-25 21:57 | -47.55181 | -69.10755 | 37934 ft | 409 kts | 214° |
| 2026-04-25 21:58 | -47.59885 | -69.15538 | 37950 ft | 409 kts | 214° |
| 2026-04-25 21:58 | -47.64589 | -69.20334 | 37954 ft | 411 kts | 214° |
| 2026-04-25 21:59 | -47.69279 | -69.25125 | 37958 ft | 412 kts | 214° |
| 2026-04-25 21:59 | -47.74008 | -69.29967 | 37956 ft | 412 kts | 214° |
| 2026-04-25 22:00 | -47.81073 | -69.37222 | 37957 ft | 410 kts | 214° |
| 2026-04-25 22:00 | -47.85732 | -69.42018 | 37962 ft | 409 kts | 214° |
| 2026-04-25 22:01 | -47.90415 | -69.46851 | 37985 ft | 410 kts | 214° |
| 2026-04-25 22:01 | -47.94312 | -69.50880 | 37980 ft | 410 kts | 214° |
| 2026-04-25 22:02 | -47.99798 | -69.56567 | 37984 ft | 410 kts | 214° |
| 2026-04-25 22:02 | -48.04458 | -69.61408 | 37958 ft | 410 kts | 213° |
| 2026-04-25 22:03 | -48.09121 | -69.66264 | 37988 ft | 407 kts | 213° |
| 2026-04-25 22:03 | -48.13771 | -69.71117 | 37993 ft | 407 kts | 213° |
| 2026-04-25 22:04 | -48.18423 | -69.75982 | 37992 ft | 409 kts | 213° |
| 2026-04-25 22:04 | -48.23076 | -69.80858 | 37997 ft | 411 kts | 213° |
| 2026-04-25 22:05 | -48.27761 | -69.85777 | 38001 ft | 410 kts | 213° |
| 2026-04-25 22:05 | -48.32440 | -69.90702 | 38004 ft | 408 kts | 213° |
| 2026-04-25 22:06 | -48.37086 | -69.95603 | 38006 ft | 408 kts | 213° |
| 2026-04-25 22:06 | -48.41700 | -70.00480 | 38015 ft | 408 kts | 213° |
| 2026-04-25 22:07 | -48.45602 | -70.04596 | 38024 ft | 408 kts | 213° |
| 2026-04-25 22:07 | -48.51031 | -70.10293 | 38020 ft | 410 kts | 213° |
| 2026-04-25 22:08 | -48.55713 | -70.15213 | 38006 ft | 409 kts | 213° |
| 2026-04-25 22:08 | -48.60330 | -70.20079 | 38021 ft | 401 kts | 213° |
| 2026-04-25 22:09 | -48.64903 | -70.24906 | 38023 ft | 401 kts | 213° |
| 2026-04-25 22:09 | -48.69456 | -70.29725 | 38020 ft | 401 kts | 213° |
| 2026-04-25 22:10 | -48.74028 | -70.34573 | 37506 ft | 399 kts | 213° |
| 2026-04-25 22:10 | -48.76325 | -70.37011 | 36348 ft | 409 kts | 212° |
| 2026-04-25 22:10 | -48.78653 | -70.39488 | 35809 ft | 403 kts | 212° |
| 2026-04-25 22:11 | -48.80934 | -70.41916 | 34972 ft | 400 kts | 211° |
| 2026-04-25 22:11 | -48.83207 | -70.44341 | 34129 ft | 398 kts | 211° |
| 2026-04-25 22:11 | -48.85463 | -70.46745 | 33368 ft | 392 kts | 210° |
| 2026-04-25 22:11 | -48.87637 | -70.49068 | 32796 ft | 383 kts | 210° |
| 2026-04-25 22:12 | -48.89787 | -70.51367 | 32312 ft | 372 kts | 210° |
| 2026-04-25 22:12 | -48.91878 | -70.53605 | 31816 ft | 363 kts | 210° |
| 2026-04-25 22:12 | -48.93938 | -70.55810 | 31284 ft | 360 kts | 210° |
| 2026-04-25 22:12 | -48.95297 | -70.57268 | 30926 ft | 359 kts | 210° |
| 2026-04-25 22:13 | -48.98017 | -70.60187 | 30221 ft | 356 kts | 210° |
| 2026-04-25 22:13 | -49.00037 | -70.62358 | 29607 ft | 354 kts | 210° |
| 2026-04-25 22:13 | -49.02022 | -70.64494 | 29067 ft | 351 kts | 210° |
| 2026-04-25 22:13 | -49.04013 | -70.66638 | 28540 ft | 348 kts | 210° |
| 2026-04-25 22:14 | -49.05980 | -70.68758 | 28004 ft | 344 kts | 210° |
| 2026-04-25 22:14 | -49.07921 | -70.70853 | 27503 ft | 340 kts | 209° |
| 2026-04-25 22:14 | -49.09838 | -70.72922 | 27015 ft | 336 kts | 209° |
| 2026-04-25 22:14 | -49.11738 | -70.74977 | 26546 ft | 332 kts | 209° |
| 2026-04-25 22:15 | -49.13591 | -70.76981 | 26069 ft | 329 kts | 209° |
| 2026-04-25 22:15 | -49.15455 | -70.78999 | 25602 ft | 327 kts | 210° |
| 2026-04-25 22:15 | -49.17311 | -70.81012 | 25081 ft | 326 kts | 210° |
| 2026-04-25 22:16 | -49.20990 | -70.85006 | 24213 ft | 321 kts | 210° |
| 2026-04-25 22:16 | -49.22782 | -70.86955 | 23796 ft | 319 kts | 210° |
| 2026-04-25 22:16 | -49.24594 | -70.88926 | 23302 ft | 318 kts | 210° |
| 2026-04-25 22:16 | -49.26386 | -70.90878 | 22815 ft | 315 kts | 210° |
| 2026-04-25 22:17 | -49.28172 | -70.92823 | 22386 ft | 312 kts | 210° |
| 2026-04-25 22:17 | -49.29928 | -70.94740 | 21985 ft | 309 kts | 210° |
| 2026-04-25 22:17 | -49.31652 | -70.96622 | 21591 ft | 306 kts | 210° |
| 2026-04-25 22:17 | -49.33378 | -70.98509 | 21143 ft | 303 kts | 210° |
| 2026-04-25 22:18 | -49.35086 | -71.00378 | 20784 ft | 300 kts | 210° |
| 2026-04-25 22:18 | -49.36777 | -71.02230 | 20416 ft | 296 kts | 210° |
| 2026-04-25 22:18 | -49.38455 | -71.04068 | 20042 ft | 294 kts | 210° |
| 2026-04-25 22:18 | -49.40123 | -71.05897 | 19662 ft | 297 kts | 210° |
| 2026-04-25 22:19 | -49.41818 | -71.07758 | 19289 ft | 302 kts | 210° |
| 2026-04-25 22:19 | -49.43528 | -71.09637 | 18916 ft | 304 kts | 210° |
| 2026-04-25 22:19 | -49.45231 | -71.11509 | 18559 ft | 304 kts | 210° |
| 2026-04-25 22:19 | -49.46933 | -71.13383 | 18151 ft | 303 kts | 210° |
| 2026-04-25 22:20 | -49.48648 | -71.15272 | 17740 ft | 302 kts | 211° |
| 2026-04-25 22:20 | -49.50350 | -71.17149 | 17356 ft | 301 kts | 211° |
| 2026-04-25 22:20 | -49.52049 | -71.19023 | 16975 ft | 300 kts | 211° |
| 2026-04-25 22:20 | -49.53749 | -71.20901 | 16599 ft | 298 kts | 211° |
| 2026-04-25 22:21 | -49.55409 | -71.22736 | 16251 ft | 297 kts | 211° |
| 2026-04-25 22:21 | -49.57089 | -71.24595 | 15891 ft | 296 kts | 212° |
| 2026-04-25 22:21 | -49.58767 | -71.26451 | 15523 ft | 295 kts | 212° |
| 2026-04-25 22:21 | -49.60438 | -71.28304 | 15142 ft | 294 kts | 212° |
| 2026-04-25 22:22 | -49.62128 | -71.29947 | 14766 ft | 287 kts | 202° |
| 2026-04-25 22:22 | -49.63925 | -71.31239 | 14407 ft | 284 kts | 203° |
| 2026-04-25 22:22 | -49.65699 | -71.32567 | 14086 ft | 280 kts | 203° |
| 2026-04-25 22:22 | -49.67439 | -71.33891 | 13737 ft | 278 kts | 204° |
| 2026-04-25 22:23 | -49.69161 | -71.35214 | 13362 ft | 275 kts | 204° |
| 2026-04-25 22:23 | -49.70863 | -71.36532 | 13009 ft | 272 kts | 204° |
| 2026-04-25 22:23 | -49.72543 | -71.37838 | 12666 ft | 269 kts | 204° |
| 2026-04-25 22:23 | -49.74220 | -71.39145 | 12344 ft | 272 kts | 204° |
| 2026-04-25 22:24 | -49.75925 | -71.40477 | 12000 ft | 277 kts | 204° |
| 2026-04-25 22:24 | -49.77652 | -71.41827 | 11672 ft | 278 kts | 205° |
| 2026-04-25 22:24 | -49.79375 | -71.43176 | 11336 ft | 278 kts | 205° |
| 2026-04-25 22:24 | -49.80519 | -71.44072 | 11108 ft | 277 kts | 205° |
| 2026-04-25 22:25 | -49.82795 | -71.45856 | 10682 ft | 276 kts | 205° |
| 2026-04-25 22:25 | -49.84482 | -71.47180 | 10521 ft | 267 kts | 205° |
| 2026-04-25 22:25 | -49.85590 | -71.48050 | 10434 ft | 261 kts | 205° |
| 2026-04-25 22:25 | -49.87687 | -71.49698 | 10258 ft | 250 kts | 205° |
| 2026-04-25 22:26 | -49.89209 | -71.50894 | 10148 ft | 242 kts | 205° |
| 2026-04-25 22:26 | -49.90702 | -71.52067 | 10101 ft | 240 kts | 205° |
| 2026-04-25 22:26 | -49.91712 | -71.52854 | 9919 ft | 240 kts | 205° |
| 2026-04-25 22:26 | -49.93213 | -71.54024 | 9416 ft | 244 kts | 204° |
| 2026-04-25 22:27 | -49.94730 | -71.55209 | 9018 ft | 243 kts | 204° |
| 2026-04-25 22:27 | -49.96211 | -71.56367 | 8761 ft | 240 kts | 205° |
| 2026-04-25 22:27 | -49.97697 | -71.57530 | 8455 ft | 237 kts | 205° |
| 2026-04-25 22:27 | -49.99155 | -71.58671 | 8189 ft | 233 kts | 205° |
| 2026-04-25 22:28 | -50.00595 | -71.59799 | 7917 ft | 230 kts | 205° |
| 2026-04-25 22:28 | -50.02015 | -71.60911 | 7654 ft | 227 kts | 205° |
| 2026-04-25 22:28 | -50.03420 | -71.62012 | 7325 ft | 225 kts | 205° |
| 2026-04-25 22:28 | -50.04804 | -71.63098 | 7110 ft | 221 kts | 205° |
| 2026-04-25 22:29 | -50.06171 | -71.64170 | 6831 ft | 219 kts | 205° |
| 2026-04-25 22:29 | -50.07524 | -71.65233 | 6583 ft | 217 kts | 205° |
| 2026-04-25 22:29 | -50.08881 | -71.66293 | 6400 ft | 220 kts | 205° |
| 2026-04-25 22:30 | -50.11580 | -71.68420 | 5982 ft | 215 kts | 206° |
| 2026-04-25 22:30 | -50.12899 | -71.69461 | 5785 ft | 210 kts | 206° |
| 2026-04-25 22:30 | -50.14177 | -71.70469 | 5655 ft | 202 kts | 206° |
| 2026-04-25 22:30 | -50.14999 | -71.71118 | 5537 ft | 198 kts | 206° |
| 2026-04-25 22:31 | -50.16620 | -71.72362 | 5298 ft | 190 kts | 201° |
| 2026-04-25 22:31 | -50.17872 | -71.72929 | 5122 ft | 185 kts | 196° |
| 2026-04-25 22:31 | -50.19099 | -71.73430 | 4914 ft | 180 kts | 196° |
| 2026-04-25 22:31 | -50.20299 | -71.73922 | 4690 ft | 176 kts | 196° |
| 2026-04-25 22:32 | -50.21468 | -71.74403 | 4478 ft | 171 kts | 196° |
| 2026-04-25 22:32 | -50.22616 | -71.74878 | 4312 ft | 171 kts | 196° |
| 2026-04-25 22:32 | -50.23765 | -71.75353 | 4149 ft | 171 kts | 196° |
| 2026-04-25 22:32 | -50.24913 | -71.75843 | 3999 ft | 170 kts | 200° |
| 2026-04-25 22:33 | -50.25805 | -71.76937 | 3866 ft | 163 kts | 236° |
| 2026-04-25 22:33 | -50.26223 | -71.78574 | 3735 ft | 162 kts | 250° |
| 2026-04-25 22:33 | -50.26453 | -71.80302 | 3566 ft | 162 kts | 255° |
| 2026-04-25 22:33 | -50.26606 | -71.82001 | 3371 ft | 155 kts | 257° |
| 2026-04-25 22:34 | -50.26723 | -71.83664 | 3198 ft | 153 kts | 258° |
| 2026-04-25 22:34 | -50.26829 | -71.85316 | 3000 ft | 153 kts | 259° |
| 2026-04-25 22:34 | -50.26931 | -71.86965 | 2800 ft | 152 kts | 259° |
| 2026-04-25 22:34 | -50.27025 | -71.88560 | 2609 ft | 140 kts | 258° |
| 2026-04-25 22:35 | -50.27114 | -71.90029 | 2433 ft | 134 kts | 258° |
| 2026-04-25 22:35 | -50.27199 | -71.91473 | 2272 ft | 133 kts | 258° |
| 2026-04-25 22:35 | -50.27286 | -71.92916 | 2072 ft | 133 kts | 258° |
| 2026-04-25 22:35 | -50.27372 | -71.94348 | 1878 ft | 135 kts | 260° |
| 2026-04-25 22:36 | -50.27449 | -71.95808 | 1655 ft | 134 kts | 260° |
| 2026-04-25 22:36 | -50.27543 | -71.97276 | 1422 ft | 140 kts | 261° |
| 2026-04-25 22:36 | -50.27635 | -71.98743 | 1228 ft | 135 kts | 261° |
| 2026-04-25 22:36 | -50.27719 | -72.00220 | 1043 ft | 137 kts | 262° |
| 2026-04-25 22:37 | -50.27805 | -72.01672 | 908 ft | 133 kts | 262° |
| 2026-04-25 22:37 | -50.27888 | -72.03109 | 742 ft | 131 kts | 264° |
| 2026-04-25 22:37 | -50.27966 | -72.04455 | 646 ft | 103 kts | 265° |
| 2026-04-25 22:37 | -50.28014 | -72.05222 | 645 ft | 40 kts | 264° |
| 2026-04-25 22:38 | -50.28038 | -72.05582 | 643 ft | 33 kts | 265° |
| 2026-04-25 22:38 | -50.28058 | -72.05933 | 645 ft | 32 kts | 264° |
| 2026-04-25 22:38 | -50.28110 | -72.06210 | 645 ft | 19 kts | 237° |
| 2026-04-25 22:38 | -50.28189 | -72.06372 | 645 ft | 15 kts | 229° |
| 2026-04-25 22:39 | -50.28286 | -72.06383 | 643 ft | 15 kts | 143° |
| 2026-04-25 22:39 | -50.28307 | -72.06227 | 643 ft | 16 kts | 84° |
| 2026-04-25 22:39 | -50.28297 | -72.06039 | 644 ft | 19 kts | 85° |
| 2026-04-25 22:39 | -50.28285 | -72.05822 | 644 ft | 20 kts | 85° |
| 2026-04-25 22:40 | -50.28273 | -72.05594 | 644 ft | 20 kts | 83° |
| 2026-04-25 22:40 | -50.28266 | -72.05494 | 644 ft | 6 kts | 90° |
| 2026-04-25 22:40 | -50.28284 | -72.05467 | 644 ft | 3 kts | 170° |
| 2026-04-25 22:40 | -50.28318 | -72.05461 | 644 ft | 6 kts | 175° |
| 2026-04-25 22:41 | -50.28330 | -72.05459 | 644 ft | 1 kts | 175° |